Time;durP1;ratioP1;P1;durP2;ratioP2;P2;SDS_P1;SDS_P2;PMS_P1;PMS_P2;Temp;Humidity;BMP_temperature;BMP_pressure;BME280_temperature;BME280_humidity;BME280_pressure;Samples;Min_cycle;Max_cycle;Signal;HPM_P1;HPM_P2
2021/09/01 00:02:24;;;;;;;18.47;5.83;;;15.80;99.90;;;;;;12517297;28;20045;-37
2021/09/01 00:08:26;;;;;;;19.48;6.25;;;15.90;99.90;;;;;;12513953;28;20635;-37
2021/09/01 00:14:28;;;;;;;14.93;5.63;;;15.90;99.90;;;;;;12511009;28;20048;-37
2021/09/01 00:20:32;;;;;;;15.73;5.68;;;15.80;99.90;;;;;;12511157;28;20093;-37
2021/09/01 00:26:34;;;;;;;15.95;6.22;;;15.80;99.90;;;;;;12518212;28;20462;-38
2021/09/01 00:32:37;;;;;;;18.63;7.07;;;15.70;99.90;;;;;;12514184;28;20049;-37
2021/09/01 00:38:39;;;;;;;18.42;5.65;;;15.70;99.90;;;;;;12495190;28;20045;-37
2021/09/01 00:44:42;;;;;;;13.20;6.00;;;15.60;99.90;;;;;;12515905;28;20135;-39
2021/09/01 00:50:46;;;;;;;17.65;6.85;;;15.70;99.90;;;;;;12518830;28;20049;-37
2021/09/01 00:56:53;;;;;;;16.02;6.47;;;15.70;99.90;;;;;;12517550;28;20048;-38
2021/09/01 01:02:57;;;;;;;16.15;6.43;;;15.60;99.90;;;;;;12512714;28;20057;-36
2021/09/01 01:09:01;;;;;;;17.95;7.03;;;15.60;99.90;;;;;;12513562;28;20053;-37
2021/09/01 01:15:06;;;;;;;19.38;8.05;;;15.60;99.90;;;;;;12512684;28;20474;-38
2021/09/01 01:21:08;;;;;;;13.77;6.70;;;15.70;99.90;;;;;;12517359;28;20056;-37
2021/09/01 01:27:21;;;;;;;14.98;6.35;;;15.70;99.90;;;;;;12517900;28;20045;-36
2021/09/01 01:33:23;;;;;;;19.08;7.10;;;15.70;99.90;;;;;;12525232;28;20045;-37
2021/09/01 01:39:27;;;;;;;15.47;6.13;;;15.60;99.90;;;;;;12530660;28;20538;-37
2021/09/01 01:45:43;;;;;;;19.15;6.03;;;15.60;99.90;;;;;;12526695;28;20042;-37
2021/09/01 01:51:49;;;;;;;14.80;6.50;;;15.50;99.90;;;;;;12521367;28;20607;-39
2021/09/01 01:57:51;;;;;;;14.55;6.57;;;15.60;99.90;;;;;;12526345;28;20080;-37
2021/09/01 02:03:57;;;;;;;16.00;6.03;;;15.60;99.90;;;;;;12519449;28;20047;-39
2021/09/01 02:09:59;;;;;;;12.82;5.65;;;15.60;99.90;;;;;;12528898;28;20045;-37
2021/09/01 02:16:01;;;;;;;17.55;6.28;;;15.60;99.90;;;;;;12522690;28;20540;-37
2021/09/01 02:22:03;;;;;;;15.43;6.00;;;15.60;99.90;;;;;;12518059;28;20432;-37
2021/09/01 02:28:05;;;;;;;13.65;6.40;;;15.50;99.90;;;;;;12526982;28;20044;-36
2021/09/01 02:34:09;;;;;;;13.13;5.70;;;15.50;99.90;;;;;;12515193;28;20044;-37
2021/09/01 02:40:14;;;;;;;14.43;6.00;;;15.50;99.90;;;;;;12519647;28;20049;-36
2021/09/01 02:46:17;;;;;;;11.52;5.32;;;15.50;99.90;;;;;;12525982;28;20053;-37
2021/09/01 02:52:26;;;;;;;13.40;5.28;;;15.50;99.90;;;;;;12517805;28;20064;-38
2021/09/01 02:58:31;;;;;;;14.98;6.78;;;15.40;99.90;;;;;;12523055;28;20045;-38
2021/09/01 03:04:33;;;;;;;18.02;6.55;;;15.40;99.90;;;;;;12515782;28;20512;-37
2021/09/01 03:10:35;;;;;;;13.90;6.35;;;15.50;99.90;;;;;;12518587;28;20049;-36
2021/09/01 03:16:38;;;;;;;16.50;6.57;;;15.60;99.90;;;;;;12522528;28;20140;-38
2021/09/01 03:22:40;;;;;;;11.95;6.07;;;15.50;99.90;;;;;;12512658;28;20072;-38
2021/09/01 03:28:45;;;;;;;19.70;6.10;;;15.30;99.90;;;;;;12519939;28;20515;-36
2021/09/01 03:34:48;;;;;;;17.88;6.82;;;15.40;99.90;;;;;;12522651;28;20397;-38
2021/09/01 03:40:53;;;;;;;13.00;6.80;;;15.40;99.90;;;;;;12519482;28;20056;-37
2021/09/01 03:46:56;;;;;;;12.02;5.97;;;15.40;99.90;;;;;;12523078;28;20048;-38
2021/09/01 03:52:58;;;;;;;20.83;6.63;;;15.40;99.90;;;;;;12501198;28;20056;-38
2021/09/01 03:59:03;;;;;;;21.05;6.55;;;15.50;99.90;;;;;;12513060;28;20062;-37
2021/09/01 04:05:06;;;;;;;14.80;6.03;;;15.40;99.90;;;;;;12503082;28;20429;-37
2021/09/01 04:11:08;;;;;;;13.65;5.72;;;15.50;99.90;;;;;;12516902;28;20091;-37
2021/09/01 04:17:10;;;;;;;12.18;5.40;;;15.30;99.90;;;;;;12520460;28;20989;-37
2021/09/01 04:23:15;;;;;;;10.93;5.93;;;15.40;99.90;;;;;;12514910;28;20041;-37
2021/09/01 04:29:20;;;;;;;18.63;5.90;;;15.40;99.90;;;;;;12517654;28;20065;-37
2021/09/01 04:35:22;;;;;;;13.25;5.97;;;15.30;99.90;;;;;;12521824;28;20037;-38
2021/09/01 04:41:25;;;;;;;10.82;5.60;;;15.20;99.90;;;;;;12522992;28;20428;-36
2021/09/01 04:47:29;;;;;;;15.23;4.82;;;15.30;99.90;;;;;;12521340;28;20452;-37
2021/09/01 04:53:31;;;;;;;16.58;4.93;;;15.30;99.90;;;;;;12518675;28;20049;-37
2021/09/01 04:59:33;;;;;;;12.65;4.75;;;15.30;99.90;;;;;;12510715;28;20457;-37
2021/09/01 05:05:35;;;;;;;13.45;5.18;;;15.30;99.90;;;;;;12516746;28;20048;-38
2021/09/01 05:11:37;;;;;;;14.02;5.10;;;15.30;99.90;;;;;;12524025;28;20049;-37
2021/09/01 05:17:45;;;;;;;10.07;4.60;;;15.20;99.90;;;;;;12521691;28;20130;-39
2021/09/01 05:23:55;;;;;;;15.00;5.40;;;15.10;99.90;;;;;;12519715;28;20037;-37
2021/09/01 05:29:59;;;;;;;13.00;4.40;;;15.10;99.90;;;;;;12523898;28;20056;-37
2021/09/01 05:36:05;;;;;;;11.07;4.43;;;15.10;99.90;;;;;;12500590;28;20053;-36
2021/09/01 05:42:09;;;;;;;8.93;4.00;;;15.20;99.90;;;;;;12521935;28;20079;-37
2021/09/01 05:48:12;;;;;;;10.80;4.22;;;15.20;99.90;;;;;;12507906;28;20079;-36
2021/09/01 05:54:15;;;;;;;11.50;4.55;;;15.10;99.90;;;;;;12525313;28;20048;-37
2021/09/01 06:00:18;;;;;;;13.35;4.55;;;15.10;99.90;;;;;;12525705;28;20048;-37
2021/09/01 06:06:23;;;;;;;10.63;4.10;;;15.10;99.90;;;;;;12522316;28;20090;-37
2021/09/01 06:12:28;;;;;;;11.00;4.20;;;15.10;99.90;;;;;;12527114;28;20054;-37
2021/09/01 06:18:31;;;;;;;11.32;4.35;;;15.30;99.90;;;;;;12521311;28;20049;-39
2021/09/01 06:24:37;;;;;;;9.13;3.22;;;15.40;99.90;;;;;;12519162;28;20044;-38
2021/09/01 06:30:39;;;;;;;8.77;3.35;;;15.60;99.90;;;;;;12525794;28;20041;-37
2021/09/01 06:36:42;;;;;;;7.00;3.45;;;15.60;99.90;;;;;;12520493;28;20053;-38
2021/09/01 06:42:45;;;;;;;9.00;3.50;;;15.70;99.90;;;;;;12523000;28;20045;-37
2021/09/01 06:48:47;;;;;;;9.32;4.28;;;15.70;99.90;;;;;;12525403;28;20054;-37
2021/09/01 06:54:50;;;;;;;7.72;4.25;;;15.80;99.90;;;;;;12523579;28;20417;-39
2021/09/01 07:00:52;;;;;;;10.85;4.28;;;15.80;99.90;;;;;;12521048;28;20182;-36
2021/09/01 07:07:00;;;;;;;10.68;3.80;;;15.90;99.90;;;;;;12518984;28;20064;-38
2021/09/01 07:13:03;;;;;;;14.77;4.30;;;15.80;99.90;;;;;;12522126;28;20144;-38
2021/09/01 07:19:05;;;;;;;9.88;3.78;;;15.80;99.90;;;;;;12523085;28;20049;-37
2021/09/01 07:25:17;;;;;;;10.38;3.08;;;16.00;99.90;;;;;;12522020;28;20045;-39
2021/09/01 07:31:27;;;;;;;11.43;3.25;;;16.10;99.90;;;;;;12522634;28;20049;-37
2021/09/01 07:37:51;;;;;;;11.23;3.35;;;16.20;99.90;;;;;;12531007;28;20064;-38
2021/09/01 07:43:57;;;;;;;9.40;2.97;;;16.10;99.90;;;;;;12516208;28;20646;-37
2021/09/01 07:50:01;;;;;;;9.98;3.33;;;16.10;99.90;;;;;;12524560;28;20445;-37
2021/09/01 07:56:06;;;;;;;11.43;3.10;;;16.00;99.90;;;;;;12524275;28;20723;-36
2021/09/01 08:02:09;;;;;;;11.45;3.40;;;16.00;99.90;;;;;;12520533;28;20056;-37
2021/09/01 08:08:11;;;;;;;8.82;3.20;;;16.10;99.90;;;;;;12520834;28;20175;-37
2021/09/01 08:14:14;;;;;;;8.07;3.20;;;16.20;99.90;;;;;;12510740;28;20466;-37
2021/09/01 08:20:17;;;;;;;11.45;3.05;;;16.20;99.90;;;;;;12509654;28;20056;-38
2021/09/01 08:26:19;;;;;;;12.10;3.80;;;16.40;99.90;;;;;;12503135;28;20073;-37
2021/09/01 08:32:21;;;;;;;9.32;3.40;;;16.40;99.90;;;;;;12520181;28;20041;-37
2021/09/01 08:38:23;;;;;;;8.73;3.10;;;16.40;99.90;;;;;;12504554;28;20056;-40
2021/09/01 08:44:25;;;;;;;9.13;3.50;;;16.60;99.90;;;;;;12516308;28;20052;-38
2021/09/01 08:50:29;;;;;;;11.90;3.33;;;16.80;99.90;;;;;;12516839;28;20052;-38
2021/09/01 08:56:32;;;;;;;9.95;3.72;;;16.70;99.90;;;;;;12517169;28;20053;-38
2021/09/01 09:02:34;;;;;;;14.68;4.20;;;16.70;99.90;;;;;;12510492;28;20425;-37
2021/09/01 09:08:45;;;;;;;9.43;3.45;;;16.80;99.90;;;;;;12508979;28;20059;-38
2021/09/01 09:14:50;;;;;;;9.60;3.25;;;16.60;99.90;;;;;;12513719;28;20198;-37
2021/09/01 09:21:20;;;;;;;7.75;3.10;;;16.70;99.90;;;;;;12514219;28;20460;-37
2021/09/01 09:27:56;;;;;;;9.93;3.78;;;16.70;99.90;;;;;;12509910;28;20059;-37
2021/09/01 09:34:26;;;;;;;12.50;3.47;;;16.70;99.90;;;;;;12520173;28;20052;-39
2021/09/01 09:40:31;;;;;;;12.55;3.70;;;16.50;99.90;;;;;;12508966;28;20102;-38
2021/09/01 09:46:47;;;;;;;9.18;3.35;;;16.40;99.90;;;;;;12516920;28;20476;-38
2021/09/01 09:52:50;;;;;;;10.25;3.42;;;16.70;99.90;;;;;;12516514;28;20041;-37
2021/09/01 09:58:55;;;;;;;9.20;3.70;;;16.80;99.90;;;;;;12505412;28;20123;-37
2021/09/01 10:04:58;;;;;;;10.15;3.22;;;16.80;99.90;;;;;;12526907;28;20055;-38
2021/09/01 10:11:03;;;;;;;11.45;3.13;;;16.90;99.90;;;;;;12526723;28;20049;-37
2021/09/01 10:17:09;;;;;;;13.10;3.70;;;16.90;99.90;;;;;;12500809;28;20194;-37
2021/09/01 10:23:34;;;;;;;9.82;3.70;;;17.30;99.90;;;;;;12524581;28;20052;-38
2021/09/01 10:29:53;;;;;;;9.10;3.55;;;17.40;99.90;;;;;;12526293;28;20053;-37
2021/09/01 10:35:58;;;;;;;14.00;3.95;;;17.40;99.90;;;;;;12505720;28;20057;-38
2021/09/01 10:42:38;;;;;;;13.65;4.20;;;17.50;99.90;;;;;;12525241;28;20077;-38
2021/09/01 10:49:02;;;;;;;11.63;4.05;;;17.40;99.90;;;;;;12519207;28;20127;-40
2021/09/01 10:55:12;;;;;;;8.52;3.47;;;17.50;99.90;;;;;;12498232;28;20544;-38
2021/09/01 11:01:26;;;;;;;9.50;3.85;;;17.50;99.90;;;;;;12526985;28;20056;-37
2021/09/01 11:07:38;;;;;;;11.07;3.90;;;17.70;99.90;;;;;;12523197;28;20057;-39
2021/09/01 11:13:42;;;;;;;;;;;17.80;99.90;;;;;;12520685;28;20409;-37
2021/09/01 11:19:50;;;;;;;9.93;3.80;;;17.90;99.90;;;;;;12521040;28;20522;-39
2021/09/01 11:25:54;;;;;;;9.52;3.42;;;18.30;99.90;;;;;;12528883;28;20044;-37
2021/09/01 11:32:03;;;;;;;7.10;3.10;;;19.20;99.90;;;;;;12523804;28;20045;-37
2021/09/01 11:38:10;;;;;;;9.67;3.30;;;20.00;99.90;;;;;;12514322;28;20187;-41
2021/09/01 11:44:18;;;;;;;11.32;3.58;;;19.50;99.90;;;;;;12518146;28;20037;-38
2021/09/01 11:50:22;;;;;;;8.20;3.42;;;19.40;99.90;;;;;;12521579;28;21517;-37
2021/09/01 11:56:37;;;;;;;8.38;3.83;;;19.60;99.90;;;;;;12520487;28;20064;-37
2021/09/01 12:02:50;;;;;;;7.57;3.30;;;19.40;99.90;;;;;;12523753;28;20057;-37
2021/09/01 12:09:16;;;;;;;8.70;3.22;;;19.30;99.90;;;;;;12516154;28;20115;-37
2021/09/01 12:15:20;;;;;;;9.40;3.65;;;19.80;99.90;;;;;;12515416;28;20238;-37
2021/09/01 12:21:47;;;;;;;12.32;3.80;;;20.00;99.90;;;;;;12468401;28;20061;-37
2021/09/01 12:27:59;;;;;;;8.85;3.95;;;19.30;99.90;;;;;;12472272;28;20531;-38
2021/09/01 12:34:08;;;;;;;11.15;4.22;;;19.00;99.90;;;;;;12458919;28;20045;-39
2021/09/01 12:40:17;;;;;;;11.73;4.45;;;18.80;99.90;;;;;;12471868;28;20409;-37
2021/09/01 12:46:30;;;;;;;10.05;4.07;;;18.70;99.90;;;;;;12469106;28;20476;-37
2021/09/01 12:52:34;;;;;;;10.10;4.00;;;18.60;99.90;;;;;;12470027;28;20038;-37
2021/09/01 12:58:39;;;;;;;11.82;3.83;;;18.60;99.90;;;;;;12473511;28;20049;-37
2021/09/01 13:04:43;;;;;;;11.38;4.20;;;19.50;99.90;;;;;;12461364;28;20045;-37
2021/09/01 13:10:45;;;;;;;11.00;3.70;;;20.40;99.90;;;;;;12471367;28;20062;-37
2021/09/01 13:16:48;;;;;;;15.82;4.22;;;21.00;99.90;;;;;;12477171;28;20045;-37
2021/09/01 13:22:55;;;;;;;10.50;3.67;;;21.30;99.90;;;;;;12515601;28;20063;-38
2021/09/01 13:28:58;;;;;;;9.95;3.88;;;21.50;99.90;;;;;;12526751;28;20037;-38
2021/09/01 13:35:01;;;;;;;10.33;3.87;;;21.90;99.90;;;;;;12530014;28;20056;-37
2021/09/01 13:41:05;;;;;;;13.07;3.80;;;21.90;99.90;;;;;;12527632;28;20049;-37
2021/09/01 13:47:08;;;;;;;10.90;3.88;;;22.30;99.90;;;;;;12523148;28;20094;-37
2021/09/01 13:53:13;;;;;;;10.15;4.35;;;22.10;99.90;;;;;;12526998;28;20049;-38
2021/09/01 13:59:16;;;;;;;9.50;4.22;;;22.00;99.90;;;;;;12531038;28;20499;-37
2021/09/01 14:05:19;;;;;;;10.38;4.43;;;21.70;99.90;;;;;;12526417;28;20117;-37
2021/09/01 14:11:30;;;;;;;10.40;3.45;;;21.40;99.90;;;;;;12531328;28;20052;-37
2021/09/01 14:17:39;;;;;;;10.52;3.47;;;21.60;99.90;;;;;;12516275;28;20065;-38
2021/09/01 14:23:43;;;;;;;10.70;3.70;;;21.30;99.90;;;;;;12518922;28;20076;-37
2021/09/01 14:29:46;;;;;;;12.93;4.32;;;20.10;99.90;;;;;;12526051;28;20049;-37
2021/09/01 14:35:51;;;;;;;10.60;3.78;;;20.40;99.90;;;;;;12521735;28;20131;-38
2021/09/01 14:41:55;;;;;;;8.18;3.42;;;21.20;99.90;;;;;;12520597;28;20045;-38
2021/09/01 14:47:59;;;;;;;7.13;3.38;;;21.70;99.90;;;;;;12521105;28;20123;-37
2021/09/01 14:54:02;;;;;;;12.57;3.70;;;22.30;99.90;;;;;;12516798;28;20045;-38
2021/09/01 15:00:08;;;;;;;10.55;4.10;;;22.30;99.90;;;;;;12528895;28;20049;-37
2021/09/01 15:06:11;;;;;;;9.10;3.60;;;22.40;99.90;;;;;;12523033;28;20053;-37
2021/09/01 15:12:22;;;;;;;10.10;3.75;;;22.60;99.90;;;;;;12522837;28;20049;-38
2021/09/01 15:18:37;;;;;;;8.77;3.97;;;22.60;99.90;;;;;;12526263;28;20065;-37
2021/09/01 15:24:51;;;;;;;11.20;3.42;;;22.50;99.90;;;;;;12502157;28;20105;-37
2021/09/01 15:30:59;;;;;;;11.02;3.42;;;22.70;99.90;;;;;;12512547;28;20147;-37
2021/09/01 15:37:06;;;;;;;9.32;3.90;;;22.80;99.90;;;;;;12520056;28;20048;-37
2021/09/01 15:43:16;;;;;;;9.23;4.45;;;22.90;99.90;;;;;;12530723;28;20048;-37
2021/09/01 15:49:19;;;;;;;9.02;3.72;;;22.80;99.90;;;;;;12522018;28;20057;-37
2021/09/01 15:55:25;;;;;;;6.55;3.30;;;22.80;99.90;;;;;;12516587;28;20053;-38
2021/09/01 16:01:29;;;;;;;8.40;3.50;;;22.30;99.90;;;;;;12522939;28;20996;-37
2021/09/01 16:07:35;;;;;;;9.52;3.65;;;21.30;99.90;;;;;;12522455;28;20049;-37
2021/09/01 16:13:46;;;;;;;10.55;3.65;;;20.60;99.90;;;;;;12513895;28;20055;-37
2021/09/01 16:20:05;;;;;;;7.78;3.20;;;20.30;99.90;;;;;;12504966;28;20099;-37
2021/09/01 16:26:12;;;;;;;11.95;4.07;;;20.00;99.90;;;;;;12514998;28;20036;-38
2021/09/01 16:32:15;;;;;;;10.48;3.75;;;19.70;99.90;;;;;;12513175;28;20053;-37
2021/09/01 16:38:23;;;;;;;8.98;3.40;;;19.80;99.90;;;;;;12518333;28;21580;-37
2021/09/01 16:44:26;;;;;;;8.88;3.13;;;20.20;99.90;;;;;;12513725;28;20049;-37
2021/09/01 16:50:30;;;;;;;15.20;3.60;;;20.20;99.90;;;;;;12510176;28;20045;-37
2021/09/01 16:56:33;;;;;;;9.60;3.55;;;20.10;99.90;;;;;;12516214;28;20613;-38
2021/09/01 17:02:38;;;;;;;15.90;4.05;;;20.50;99.90;;;;;;12519003;28;20527;-37
2021/09/01 17:08:43;;;;;;;8.88;3.50;;;20.30;99.90;;;;;;12521844;28;20087;-37
2021/09/01 17:14:47;;;;;;;7.82;3.10;;;20.20;99.90;;;;;;12523122;28;20075;-38
2021/09/01 17:21:03;;;;;;;8.85;3.65;;;20.00;99.90;;;;;;12522110;28;20076;-37
2021/09/01 17:27:19;;;;;;;10.07;3.47;;;19.60;99.90;;;;;;12516393;28;20514;-37
2021/09/01 17:33:25;;;;;;;11.43;3.80;;;19.50;99.90;;;;;;12523947;28;20037;-37
2021/09/01 17:39:31;;;;;;;9.15;3.63;;;19.40;99.90;;;;;;12521361;28;20410;-37
2021/09/01 17:45:34;;;;;;;7.22;3.25;;;19.20;99.90;;;;;;12519503;28;20092;-37
2021/09/01 17:51:41;;;;;;;7.60;3.60;;;19.10;99.90;;;;;;12524589;28;20060;-37
2021/09/01 17:57:47;;;;;;;8.52;3.50;;;18.90;99.90;;;;;;12504854;28;20056;-36
2021/09/01 18:03:54;;;;;;;7.63;3.83;;;18.70;99.90;;;;;;12518080;28;20045;-37
2021/09/01 18:09:56;;;;;;;10.68;3.35;;;18.60;99.90;;;;;;12523672;28;20045;-37
2021/09/01 18:16:00;;;;;;;10.85;3.70;;;18.40;99.90;;;;;;12527990;28;20064;-37
2021/09/01 18:22:11;;;;;;;12.02;4.40;;;18.20;99.90;;;;;;12524704;28;20128;-37
2021/09/01 18:28:14;;;;;;;9.10;3.70;;;17.90;99.90;;;;;;12528185;28;20049;-37
2021/09/01 18:34:17;;;;;;;11.93;4.07;;;17.70;99.90;;;;;;12526988;28;20049;-37
2021/09/01 18:40:20;;;;;;;7.15;4.00;;;17.60;99.90;;;;;;12520636;28;20053;-37
2021/09/01 18:46:23;;;;;;;7.35;4.25;;;17.40;99.90;;;;;;12523796;28;20045;-37
2021/09/01 18:52:31;;;;;;;11.05;4.63;;;17.20;99.90;;;;;;12522654;28;20045;-37
2021/09/01 18:58:33;;;;;;;10.93;4.05;;;17.00;99.90;;;;;;12523086;28;20091;-37
2021/09/01 19:04:46;;;;;;;12.77;4.20;;;16.80;99.90;;;;;;12516806;28;20052;-37
2021/09/01 19:10:50;;;;;;;11.63;4.22;;;16.70;99.90;;;;;;12515974;28;20422;-37
2021/09/01 19:16:51;;;;;;;9.57;4.00;;;16.70;99.90;;;;;;12515802;28;20060;-37
2021/09/01 19:22:54;;;;;;;9.40;4.05;;;16.50;99.90;;;;;;12518324;28;20076;-37
2021/09/01 19:29:02;;;;;;;9.88;4.70;;;16.30;99.90;;;;;;12520269;28;20537;-37
2021/09/01 19:35:06;;;;;;;9.55;5.45;;;16.20;99.90;;;;;;12518785;28;20045;-37
2021/09/01 19:41:09;;;;;;;11.07;4.65;;;16.10;99.90;;;;;;12524480;28;20091;-37
2021/09/01 19:47:13;;;;;;;11.37;6.10;;;16.10;99.90;;;;;;12519815;28;20060;-37
2021/09/01 19:53:16;;;;;;;10.20;4.27;;;16.20;99.90;;;;;;12512745;28;20041;-37
2021/09/01 19:59:20;;;;;;;8.75;4.07;;;16.40;99.90;;;;;;12514755;28;20049;-37
2021/09/01 20:05:22;;;;;;;10.18;4.45;;;16.40;99.90;;;;;;12497282;28;20489;-37
2021/09/01 20:11:25;;;;;;;12.07;5.43;;;16.30;99.90;;;;;;12519913;28;20429;-37
2021/09/01 20:17:27;;;;;;;10.02;5.80;;;16.10;99.90;;;;;;12520586;28;20088;-37
2021/09/01 20:23:33;;;;;;;13.07;5.30;;;16.10;99.90;;;;;;12512702;28;20050;-37
2021/09/01 20:29:37;;;;;;;9.23;5.03;;;16.10;99.90;;;;;;12510258;28;20052;-37
2021/09/01 20:35:39;;;;;;;15.55;5.50;;;16.10;99.90;;;;;;12513654;28;20045;-36
2021/09/01 20:41:42;;;;;;;13.07;6.07;;;15.80;99.90;;;;;;12510724;28;20049;-37
2021/09/01 20:48:06;;;;;;;13.43;6.10;;;15.60;99.90;;;;;;12513903;28;20560;-38
2021/09/01 20:54:10;;;;;;;11.73;6.32;;;15.60;99.90;;;;;;12508536;28;20049;-38
2021/09/01 21:00:15;;;;;;;12.48;5.80;;;15.40;99.90;;;;;;12515382;28;20159;-36
2021/09/01 21:06:18;;;;;;;13.52;6.28;;;15.40;99.90;;;;;;12519473;28;20053;-36
2021/09/01 21:12:20;;;;;;;16.65;6.68;;;15.40;99.90;;;;;;12518641;28;20152;-36
2021/09/01 21:18:24;;;;;;;11.45;6.28;;;15.40;99.90;;;;;;12507945;28;20057;-36
2021/09/01 21:24:29;;;;;;;15.43;6.78;;;15.40;99.90;;;;;;12496127;28;20072;-36
2021/09/01 21:30:35;;;;;;;14.07;6.88;;;15.40;99.90;;;;;;12509985;28;20044;-37
2021/09/01 21:36:37;;;;;;;20.27;7.10;;;15.40;99.90;;;;;;12509561;28;20049;-36
2021/09/01 21:42:39;;;;;;;13.02;6.70;;;15.50;99.90;;;;;;12514866;28;20041;-37
2021/09/01 21:48:41;;;;;;;12.60;6.97;;;15.30;99.90;;;;;;12520828;28;20080;-37
2021/09/01 21:54:44;;;;;;;13.27;7.10;;;15.30;99.90;;;;;;12509985;28;20037;-36
2021/09/01 22:00:46;;;;;;;14.20;6.85;;;15.40;99.90;;;;;;12519163;28;20374;-37
2021/09/01 22:06:48;;;;;;;13.50;6.30;;;15.20;99.90;;;;;;12523508;28;20083;-36
2021/09/01 22:12:52;;;;;;;18.63;6.90;;;15.20;99.90;;;;;;12523970;28;20400;-36
2021/09/01 22:18:54;;;;;;;18.00;7.40;;;15.30;99.90;;;;;;12527579;28;20511;-37
2021/09/01 22:24:56;;;;;;;13.60;6.80;;;15.10;99.90;;;;;;12499080;28;20494;-36
2021/09/01 22:30:59;;;;;;;12.43;6.90;;;15.10;99.90;;;;;;12526551;28;20439;-36
2021/09/01 22:37:01;;;;;;;15.60;6.72;;;15.10;99.90;;;;;;12525100;28;20132;-37
2021/09/01 22:43:03;;;;;;;11.45;6.50;;;15.10;99.90;;;;;;12521177;28;20497;-37
2021/09/01 22:49:07;;;;;;;13.05;6.75;;;15.20;99.90;;;;;;12524137;28;20044;-36
2021/09/01 22:55:09;;;;;;;;;;;15.10;99.90;;;;;;12518174;28;20041;-36
2021/09/01 23:01:11;;;;;;;11.63;6.07;;;15.10;99.90;;;;;;12520828;28;19931;-36
2021/09/01 23:07:14;;;;;;;12.15;6.55;;;15.00;99.90;;;;;;12512623;28;20041;-37
2021/09/01 23:13:16;;;;;;;14.13;7.05;;;14.90;99.90;;;;;;12519234;28;20611;-36
2021/09/01 23:19:18;;;;;;;13.02;7.00;;;14.80;99.90;;;;;;12517478;28;20087;-36
2021/09/01 23:25:24;;;;;;;15.27;6.78;;;14.80;99.90;;;;;;12522043;28;20052;-36
2021/09/01 23:31:26;;;;;;;16.47;7.13;;;14.70;99.90;;;;;;12520636;28;20535;-36
2021/09/01 23:37:28;;;;;;;14.75;7.20;;;14.70;99.90;;;;;;12520742;28;20060;-36
2021/09/01 23:43:30;;;;;;;15.20;7.00;;;14.60;99.90;;;;;;12520241;28;20045;-36
2021/09/01 23:49:35;;;;;;;11.63;6.45;;;14.60;99.90;;;;;;12512069;28;20049;-36
2021/09/01 23:55:37;;;;;;;10.95;6.70;;;14.50;99.90;;;;;;12513612;28;20091;-36
